Airport ID:KSMD
Update Time (UTC):27/01/2021 04:25
Wind Speed (Knots):4
Wind Direction (Magnetic):360
Temperature (°C):-2.4
Dew Point (°C):-3.8
Humidity (%):90.2
Altimeter (inHg):30.1
Density Altitude (Feet):
Visibility (Miles):10
Clouds (Hundreds of feet):OVC015
Present Weather:
METAR:METAR KSMD 270425Z AUTO 35004KT 10SM OVC015 M02/M04 A3009 RMK A01

The data displayed is for advisory purposes only and is not to be used for flight planning or operations.